sensor_id;sensor_type;location;lat;lon;timestamp;P1;durP1;ratioP1;P2;durP2;ratioP2
40244;SDS011;25963;42.694;23.600;2024-01-25T00:02:21;50.90;;;26.95;;
40244;SDS011;25963;42.694;23.600;2024-01-25T00:04:47;46.75;;;26.98;;
40244;SDS011;25963;42.694;23.600;2024-01-25T00:07:12;45.60;;;25.42;;
40244;SDS011;25963;42.694;23.600;2024-01-25T00:09:38;56.03;;;28.08;;
40244;SDS011;25963;42.694;23.600;2024-01-25T00:12:03;52.20;;;28.30;;
40244;SDS011;25963;42.694;23.600;2024-01-25T00:14:29;50.67;;;28.25;;
40244;SDS011;25963;42.694;23.600;2024-01-25T00:16:54;53.05;;;30.58;;
40244;SDS011;25963;42.694;23.600;2024-01-25T00:19:19;57.00;;;32.17;;
40244;SDS011;25963;42.694;23.600;2024-01-25T00:21:45;65.35;;;33.70;;
40244;SDS011;25963;42.694;23.600;2024-01-25T00:24:11;63.20;;;32.28;;
40244;SDS011;25963;42.694;23.600;2024-01-25T00:26:37;55.90;;;30.48;;
40244;SDS011;25963;42.694;23.600;2024-01-25T00:29:03;114.57;;;57.35;;
40244;SDS011;25963;42.694;23.600;2024-01-25T00:31:28;78.93;;;42.85;;
40244;SDS011;25963;42.694;23.600;2024-01-25T00:33:54;66.45;;;37.72;;
40244;SDS011;25963;42.694;23.600;2024-01-25T00:36:20;68.97;;;35.38;;
40244;SDS011;25963;42.694;23.600;2024-01-25T00:38:46;65.38;;;35.85;;
40244;SDS011;25963;42.694;23.600;2024-01-25T00:41:12;72.15;;;38.63;;
40244;SDS011;25963;42.694;23.600;2024-01-25T00:43:42;70.53;;;38.63;;
40244;SDS011;25963;42.694;23.600;2024-01-25T00:46:08;66.72;;;35.53;;
40244;SDS011;25963;42.694;23.600;2024-01-25T00:48:34;60.10;;;33.83;;
40244;SDS011;25963;42.694;23.600;2024-01-25T00:51:00;58.63;;;33.50;;
40244;SDS011;25963;42.694;23.600;2024-01-25T00:53:26;66.28;;;34.10;;
40244;SDS011;25963;42.694;23.600;2024-01-25T00:55:51;117.60;;;58.13;;
40244;SDS011;25963;42.694;23.600;2024-01-25T00:58:17;87.30;;;44.60;;
40244;SDS011;25963;42.694;23.600;2024-01-25T01:00:43;72.85;;;39.60;;
40244;SDS011;25963;42.694;23.600;2024-01-25T01:03:09;63.95;;;34.38;;
40244;SDS011;25963;42.694;23.600;2024-01-25T01:05:36;69.00;;;37.47;;
40244;SDS011;25963;42.694;23.600;2024-01-25T01:08:01;62.70;;;35.72;;
40244;SDS011;25963;42.694;23.600;2024-01-25T01:10:27;61.65;;;32.42;;
40244;SDS011;25963;42.694;23.600;2024-01-25T01:12:53;57.33;;;31.70;;
40244;SDS011;25963;42.694;23.600;2024-01-25T01:15:19;68.75;;;36.30;;
40244;SDS011;25963;42.694;23.600;2024-01-25T01:17:44;56.88;;;33.25;;
40244;SDS011;25963;42.694;23.600;2024-01-25T01:20:10;70.82;;;39.35;;
40244;SDS011;25963;42.694;23.600;2024-01-25T01:22:36;68.63;;;37.78;;
40244;SDS011;25963;42.694;23.600;2024-01-25T01:25:01;64.35;;;34.75;;
40244;SDS011;25963;42.694;23.600;2024-01-25T01:27:26;61.85;;;34.45;;
40244;SDS011;25963;42.694;23.600;2024-01-25T01:29:52;65.78;;;33.47;;
40244;SDS011;25963;42.694;23.600;2024-01-25T01:32:17;57.78;;;33.20;;
40244;SDS011;25963;42.694;23.600;2024-01-25T01:34:43;65.10;;;32.35;;
40244;SDS011;25963;42.694;23.600;2024-01-25T01:37:09;55.38;;;31.90;;
40244;SDS011;25963;42.694;23.600;2024-01-25T01:39:34;60.60;;;32.20;;
40244;SDS011;25963;42.694;23.600;2024-01-25T01:42:00;60.65;;;31.42;;
40244;SDS011;25963;42.694;23.600;2024-01-25T01:44:25;60.17;;;31.63;;
40244;SDS011;25963;42.694;23.600;2024-01-25T01:46:51;62.00;;;32.60;;
40244;SDS011;25963;42.694;23.600;2024-01-25T01:49:16;56.13;;;32.42;;
40244;SDS011;25963;42.694;23.600;2024-01-25T01:51:42;58.90;;;32.35;;
40244;SDS011;25963;42.694;23.600;2024-01-25T01:54:08;57.17;;;31.35;;
40244;SDS011;25963;42.694;23.600;2024-01-25T01:56:34;58.05;;;33.17;;
40244;SDS011;25963;42.694;23.600;2024-01-25T01:59:00;52.80;;;29.33;;
40244;SDS011;25963;42.694;23.600;2024-01-25T02:01:27;45.42;;;24.40;;
40244;SDS011;25963;42.694;23.600;2024-01-25T02:03:54;42.10;;;22.40;;
40244;SDS011;25963;42.694;23.600;2024-01-25T02:06:21;37.10;;;20.60;;
40244;SDS011;25963;42.694;23.600;2024-01-25T02:08:48;37.42;;;20.63;;
40244;SDS011;25963;42.694;23.600;2024-01-25T02:11:14;39.58;;;19.95;;
40244;SDS011;25963;42.694;23.600;2024-01-25T02:13:40;32.38;;;17.65;;
40244;SDS011;25963;42.694;23.600;2024-01-25T02:16:06;32.67;;;18.05;;
40244;SDS011;25963;42.694;23.600;2024-01-25T02:18:32;30.98;;;17.27;;
40244;SDS011;25963;42.694;23.600;2024-01-25T02:20:58;35.28;;;16.63;;
40244;SDS011;25963;42.694;23.600;2024-01-25T02:23:24;42.33;;;23.67;;
40244;SDS011;25963;42.694;23.600;2024-01-25T02:25:49;33.92;;;19.90;;
40244;SDS011;25963;42.694;23.600;2024-01-25T02:28:15;33.47;;;19.92;;
40244;SDS011;25963;42.694;23.600;2024-01-25T02:30:40;47.65;;;23.38;;
40244;SDS011;25963;42.694;23.600;2024-01-25T02:33:05;47.78;;;27.35;;
40244;SDS011;25963;42.694;23.600;2024-01-25T02:35:31;54.13;;;29.90;;
40244;SDS011;25963;42.694;23.600;2024-01-25T02:37:56;55.72;;;32.22;;
40244;SDS011;25963;42.694;23.600;2024-01-25T02:40:22;37.33;;;19.73;;
40244;SDS011;25963;42.694;23.600;2024-01-25T02:42:47;33.03;;;17.67;;
40244;SDS011;25963;42.694;23.600;2024-01-25T02:45:12;37.65;;;20.42;;
40244;SDS011;25963;42.694;23.600;2024-01-25T02:47:38;34.42;;;18.75;;
40244;SDS011;25963;42.694;23.600;2024-01-25T02:50:03;41.17;;;24.92;;
40244;SDS011;25963;42.694;23.600;2024-01-25T02:52:29;36.80;;;23.05;;
40244;SDS011;25963;42.694;23.600;2024-01-25T02:54:55;44.42;;;23.42;;
40244;SDS011;25963;42.694;23.600;2024-01-25T02:57:20;42.97;;;25.90;;
40244;SDS011;25963;42.694;23.600;2024-01-25T02:59:45;50.13;;;25.40;;
40244;SDS011;25963;42.694;23.600;2024-01-25T03:02:12;35.75;;;22.17;;
40244;SDS011;25963;42.694;23.600;2024-01-25T03:04:37;48.08;;;27.25;;
40244;SDS011;25963;42.694;23.600;2024-01-25T03:07:03;42.70;;;23.67;;
40244;SDS011;25963;42.694;23.600;2024-01-25T03:09:28;85.97;;;38.13;;
40244;SDS011;25963;42.694;23.600;2024-01-25T03:11:54;66.75;;;32.78;;
40244;SDS011;25963;42.694;23.600;2024-01-25T03:14:19;50.50;;;27.38;;
40244;SDS011;25963;42.694;23.600;2024-01-25T03:16:45;42.25;;;23.92;;
40244;SDS011;25963;42.694;23.600;2024-01-25T03:19:10;41.80;;;24.67;;
40244;SDS011;25963;42.694;23.600;2024-01-25T03:21:36;49.65;;;28.10;;
40244;SDS011;25963;42.694;23.600;2024-01-25T03:24:02;51.20;;;27.10;;
40244;SDS011;25963;42.694;23.600;2024-01-25T03:26:27;49.15;;;28.33;;
40244;SDS011;25963;42.694;23.600;2024-01-25T03:28:53;45.63;;;25.95;;
40244;SDS011;25963;42.694;23.600;2024-01-25T03:31:18;47.22;;;26.42;;
40244;SDS011;25963;42.694;23.600;2024-01-25T03:33:44;45.08;;;26.52;;
40244;SDS011;25963;42.694;23.600;2024-01-25T03:36:13;47.45;;;27.45;;
40244;SDS011;25963;42.694;23.600;2024-01-25T03:38:39;49.80;;;27.85;;
40244;SDS011;25963;42.694;23.600;2024-01-25T03:41:04;43.35;;;25.92;;
40244;SDS011;25963;42.694;23.600;2024-01-25T03:43:29;121.88;;;55.05;;
40244;SDS011;25963;42.694;23.600;2024-01-25T03:45:55;61.70;;;33.08;;
40244;SDS011;25963;42.694;23.600;2024-01-25T03:48:20;59.85;;;34.10;;
40244;SDS011;25963;42.694;23.600;2024-01-25T03:50:47;57.42;;;31.13;;
40244;SDS011;25963;42.694;23.600;2024-01-25T03:53:12;68.80;;;38.13;;
40244;SDS011;25963;42.694;23.600;2024-01-25T03:55:38;56.33;;;31.52;;
40244;SDS011;25963;42.694;23.600;2024-01-25T03:58:03;69.85;;;36.25;;
40244;SDS011;25963;42.694;23.600;2024-01-25T04:00:29;56.50;;;30.55;;
40244;SDS011;25963;42.694;23.600;2024-01-25T04:02:54;47.40;;;26.25;;
40244;SDS011;25963;42.694;23.600;2024-01-25T04:05:20;50.05;;;28.10;;
40244;SDS011;25963;42.694;23.600;2024-01-25T04:07:46;49.13;;;27.58;;
40244;SDS011;25963;42.694;23.600;2024-01-25T04:10:11;38.20;;;24.70;;
40244;SDS011;25963;42.694;23.600;2024-01-25T04:12:36;44.22;;;23.75;;
40244;SDS011;25963;42.694;23.600;2024-01-25T04:15:02;43.47;;;24.85;;
40244;SDS011;25963;42.694;23.600;2024-01-25T04:17:28;44.78;;;22.63;;
40244;SDS011;25963;42.694;23.600;2024-01-25T04:19:53;41.42;;;22.92;;
40244;SDS011;25963;42.694;23.600;2024-01-25T04:22:19;39.10;;;23.23;;
40244;SDS011;25963;42.694;23.600;2024-01-25T04:24:44;37.00;;;23.17;;
40244;SDS011;25963;42.694;23.600;2024-01-25T04:27:13;41.45;;;24.85;;
40244;SDS011;25963;42.694;23.600;2024-01-25T04:29:39;39.00;;;24.42;;
40244;SDS011;25963;42.694;23.600;2024-01-25T04:32:06;38.13;;;23.23;;
40244;SDS011;25963;42.694;23.600;2024-01-25T04:34:32;45.58;;;23.75;;
40244;SDS011;25963;42.694;23.600;2024-01-25T04:36:57;36.17;;;20.45;;
40244;SDS011;25963;42.694;23.600;2024-01-25T04:39:23;46.63;;;25.98;;
40244;SDS011;25963;42.694;23.600;2024-01-25T04:41:48;33.28;;;20.77;;
40244;SDS011;25963;42.694;23.600;2024-01-25T04:44:14;36.42;;;20.92;;
40244;SDS011;25963;42.694;23.600;2024-01-25T04:46:39;33.50;;;19.90;;
40244;SDS011;25963;42.694;23.600;2024-01-25T04:49:04;37.00;;;20.05;;
40244;SDS011;25963;42.694;23.600;2024-01-25T04:51:30;32.75;;;19.15;;
40244;SDS011;25963;42.694;23.600;2024-01-25T04:53:56;34.90;;;18.55;;
40244;SDS011;25963;42.694;23.600;2024-01-25T04:56:21;33.08;;;19.10;;
40244;SDS011;25963;42.694;23.600;2024-01-25T04:58:46;32.20;;;19.40;;
40244;SDS011;25963;42.694;23.600;2024-01-25T05:01:12;28.52;;;17.15;;
40244;SDS011;25963;42.694;23.600;2024-01-25T05:03:37;32.70;;;17.75;;
40244;SDS011;25963;42.694;23.600;2024-01-25T05:06:03;29.58;;;17.30;;
40244;SDS011;25963;42.694;23.600;2024-01-25T05:08:28;56.60;;;28.92;;
40244;SDS011;25963;42.694;23.600;2024-01-25T05:10:54;39.42;;;23.63;;
40244;SDS011;25963;42.694;23.600;2024-01-25T05:13:19;333.67;;;142.90;;
40244;SDS011;25963;42.694;23.600;2024-01-25T05:15:44;54.22;;;26.73;;
40244;SDS011;25963;42.694;23.600;2024-01-25T05:18:10;26.85;;;15.82;;
40244;SDS011;25963;42.694;23.600;2024-01-25T05:20:35;29.00;;;14.20;;
40244;SDS011;25963;42.694;23.600;2024-01-25T05:23:02;23.15;;;13.13;;
40244;SDS011;25963;42.694;23.600;2024-01-25T05:25:28;25.02;;;13.00;;
40244;SDS011;25963;42.694;23.600;2024-01-25T05:27:55;23.70;;;13.32;;
40244;SDS011;25963;42.694;23.600;2024-01-25T05:30:26;22.70;;;13.00;;
40244;SDS011;25963;42.694;23.600;2024-01-25T05:32:52;20.85;;;11.60;;
40244;SDS011;25963;42.694;23.600;2024-01-25T05:35:19;16.90;;;9.02;;
40244;SDS011;25963;42.694;23.600;2024-01-25T05:37:45;10.73;;;6.57;;
40244;SDS011;25963;42.694;23.600;2024-01-25T05:40:10;12.00;;;6.47;;
40244;SDS011;25963;42.694;23.600;2024-01-25T05:42:36;8.52;;;4.53;;
40244;SDS011;25963;42.694;23.600;2024-01-25T05:45:02;50.53;;;25.92;;
40244;SDS011;25963;42.694;23.600;2024-01-25T05:47:28;15.07;;;7.38;;
40244;SDS011;25963;42.694;23.600;2024-01-25T05:49:55;7.95;;;6.03;;
40244;SDS011;25963;42.694;23.600;2024-01-25T05:52:20;36.13;;;18.58;;
40244;SDS011;25963;42.694;23.600;2024-01-25T05:54:47;12.80;;;6.55;;
40244;SDS011;25963;42.694;23.600;2024-01-25T05:57:12;12.23;;;5.97;;
40244;SDS011;25963;42.694;23.600;2024-01-25T05:59:38;10.70;;;5.55;;
40244;SDS011;25963;42.694;23.600;2024-01-25T06:02:03;8.88;;;4.25;;
40244;SDS011;25963;42.694;23.600;2024-01-25T06:04:29;7.75;;;4.97;;
40244;SDS011;25963;42.694;23.600;2024-01-25T06:06:54;6.97;;;4.15;;
40244;SDS011;25963;42.694;23.600;2024-01-25T06:09:20;10.85;;;6.20;;
40244;SDS011;25963;42.694;23.600;2024-01-25T06:11:45;28.13;;;19.27;;
40244;SDS011;25963;42.694;23.600;2024-01-25T06:14:11;9.75;;;5.55;;
40244;SDS011;25963;42.694;23.600;2024-01-25T06:16:36;7.25;;;3.90;;
40244;SDS011;25963;42.694;23.600;2024-01-25T06:19:03;9.73;;;4.70;;
40244;SDS011;25963;42.694;23.600;2024-01-25T06:21:28;7.55;;;4.93;;
40244;SDS011;25963;42.694;23.600;2024-01-25T06:23:54;9.60;;;4.65;;
40244;SDS011;25963;42.694;23.600;2024-01-25T06:26:19;8.40;;;4.60;;
40244;SDS011;25963;42.694;23.600;2024-01-25T06:28:45;13.68;;;7.20;;
40244;SDS011;25963;42.694;23.600;2024-01-25T06:31:10;15.23;;;8.63;;
40244;SDS011;25963;42.694;23.600;2024-01-25T06:33:36;16.65;;;9.40;;
40244;SDS011;25963;42.694;23.600;2024-01-25T06:36:01;13.15;;;6.32;;
40244;SDS011;25963;42.694;23.600;2024-01-25T06:38:27;13.55;;;6.50;;
40244;SDS011;25963;42.694;23.600;2024-01-25T06:40:52;10.63;;;6.13;;
40244;SDS011;25963;42.694;23.600;2024-01-25T06:43:18;11.35;;;5.85;;
40244;SDS011;25963;42.694;23.600;2024-01-25T06:45:43;11.02;;;5.43;;
40244;SDS011;25963;42.694;23.600;2024-01-25T06:48:08;17.23;;;9.02;;
40244;SDS011;25963;42.694;23.600;2024-01-25T06:50:34;28.23;;;15.13;;
40244;SDS011;25963;42.694;23.600;2024-01-25T06:53:00;37.25;;;17.77;;
40244;SDS011;25963;42.694;23.600;2024-01-25T06:55:25;21.65;;;9.52;;
40244;SDS011;25963;42.694;23.600;2024-01-25T06:57:51;11.77;;;6.32;;
40244;SDS011;25963;42.694;23.600;2024-01-25T07:00:16;12.63;;;6.82;;
40244;SDS011;25963;42.694;23.600;2024-01-25T07:02:43;8.68;;;5.22;;
40244;SDS011;25963;42.694;23.600;2024-01-25T07:05:09;7.63;;;4.72;;
40244;SDS011;25963;42.694;23.600;2024-01-25T07:07:35;10.13;;;5.75;;
40244;SDS011;25963;42.694;23.600;2024-01-25T07:10:03;9.32;;;5.28;;
40244;SDS011;25963;42.694;23.600;2024-01-25T07:12:32;19.88;;;11.45;;
40244;SDS011;25963;42.694;23.600;2024-01-25T07:14:57;12.80;;;6.57;;
40244;SDS011;25963;42.694;23.600;2024-01-25T07:17:23;13.48;;;7.05;;
40244;SDS011;25963;42.694;23.600;2024-01-25T07:19:48;9.85;;;5.45;;
40244;SDS011;25963;42.694;23.600;2024-01-25T07:22:14;15.65;;;6.60;;
40244;SDS011;25963;42.694;23.600;2024-01-25T07:24:40;14.45;;;8.55;;
40244;SDS011;25963;42.694;23.600;2024-01-25T07:27:06;11.15;;;6.18;;
40244;SDS011;25963;42.694;23.600;2024-01-25T07:29:32;13.40;;;5.45;;
40244;SDS011;25963;42.694;23.600;2024-01-25T07:31:57;7.65;;;5.00;;
40244;SDS011;25963;42.694;23.600;2024-01-25T07:34:22;13.35;;;6.20;;
40244;SDS011;25963;42.694;23.600;2024-01-25T07:36:48;11.55;;;6.32;;
40244;SDS011;25963;42.694;23.600;2024-01-25T07:39:13;9.70;;;5.68;;
40244;SDS011;25963;42.694;23.600;2024-01-25T07:41:39;20.60;;;10.63;;
40244;SDS011;25963;42.694;23.600;2024-01-25T07:44:04;58.00;;;24.67;;
40244;SDS011;25963;42.694;23.600;2024-01-25T07:46:31;84.25;;;34.75;;
40244;SDS011;25963;42.694;23.600;2024-01-25T07:48:56;74.85;;;33.53;;
40244;SDS011;25963;42.694;23.600;2024-01-25T07:51:21;43.78;;;20.35;;
40244;SDS011;25963;42.694;23.600;2024-01-25T07:53:47;59.15;;;26.48;;
40244;SDS011;25963;42.694;23.600;2024-01-25T07:56:13;22.17;;;11.88;;
40244;SDS011;25963;42.694;23.600;2024-01-25T07:58:38;36.13;;;15.70;;
40244;SDS011;25963;42.694;23.600;2024-01-25T08:01:04;34.90;;;15.93;;
40244;SDS011;25963;42.694;23.600;2024-01-25T08:03:31;62.30;;;27.52;;
40244;SDS011;25963;42.694;23.600;2024-01-25T08:05:57;76.20;;;32.38;;
40244;SDS011;25963;42.694;23.600;2024-01-25T08:08:22;43.63;;;21.38;;
40244;SDS011;25963;42.694;23.600;2024-01-25T08:10:48;37.90;;;16.88;;
40244;SDS011;25963;42.694;23.600;2024-01-25T08:13:14;36.10;;;17.35;;
40244;SDS011;25963;42.694;23.600;2024-01-25T08:15:39;24.05;;;14.38;;
40244;SDS011;25963;42.694;23.600;2024-01-25T08:18:05;36.22;;;20.42;;
40244;SDS011;25963;42.694;23.600;2024-01-25T08:20:31;24.95;;;11.65;;
40244;SDS011;25963;42.694;23.600;2024-01-25T08:22:56;15.30;;;8.38;;
40244;SDS011;25963;42.694;23.600;2024-01-25T08:25:21;17.17;;;9.23;;
40244;SDS011;25963;42.694;23.600;2024-01-25T08:27:47;11.45;;;6.22;;
40244;SDS011;25963;42.694;23.600;2024-01-25T08:30:12;10.60;;;5.13;;
40244;SDS011;25963;42.694;23.600;2024-01-25T08:32:38;14.30;;;7.13;;
40244;SDS011;25963;42.694;23.600;2024-01-25T08:35:03;16.95;;;7.22;;
40244;SDS011;25963;42.694;23.600;2024-01-25T08:37:29;15.05;;;5.82;;
40244;SDS011;25963;42.694;23.600;2024-01-25T08:39:55;11.63;;;5.70;;
40244;SDS011;25963;42.694;23.600;2024-01-25T08:42:20;13.35;;;7.57;;
40244;SDS011;25963;42.694;23.600;2024-01-25T08:44:46;10.57;;;6.45;;
40244;SDS011;25963;42.694;23.600;2024-01-25T08:47:17;9.15;;;5.43;;
40244;SDS011;25963;42.694;23.600;2024-01-25T08:49:43;10.98;;;5.82;;
40244;SDS011;25963;42.694;23.600;2024-01-25T08:52:09;13.40;;;7.60;;
40244;SDS011;25963;42.694;23.600;2024-01-25T08:54:34;18.42;;;8.77;;
40244;SDS011;25963;42.694;23.600;2024-01-25T08:57:02;29.25;;;15.38;;
40244;SDS011;25963;42.694;23.600;2024-01-25T08:59:28;15.75;;;6.85;;
40244;SDS011;25963;42.694;23.600;2024-01-25T09:01:56;16.92;;;8.05;;
40244;SDS011;25963;42.694;23.600;2024-01-25T09:04:21;13.38;;;6.65;;
40244;SDS011;25963;42.694;23.600;2024-01-25T09:06:46;17.00;;;8.98;;
40244;SDS011;25963;42.694;23.600;2024-01-25T09:09:12;31.13;;;15.88;;
40244;SDS011;25963;42.694;23.600;2024-01-25T09:11:37;35.17;;;20.77;;
40244;SDS011;25963;42.694;23.600;2024-01-25T09:14:03;23.48;;;13.23;;
40244;SDS011;25963;42.694;23.600;2024-01-25T09:16:28;16.38;;;8.07;;
40244;SDS011;25963;42.694;23.600;2024-01-25T09:18:54;14.65;;;8.07;;
40244;SDS011;25963;42.694;23.600;2024-01-25T09:21:19;10.95;;;5.60;;
40244;SDS011;25963;42.694;23.600;2024-01-25T09:23:44;16.08;;;6.80;;
40244;SDS011;25963;42.694;23.600;2024-01-25T09:26:10;15.20;;;6.72;;
40244;SDS011;25963;42.694;23.600;2024-01-25T09:28:35;8.50;;;5.43;;
40244;SDS011;25963;42.694;23.600;2024-01-25T09:31:00;13.98;;;5.78;;
40244;SDS011;25963;42.694;23.600;2024-01-25T09:33:26;12.98;;;5.43;;
40244;SDS011;25963;42.694;23.600;2024-01-25T09:35:52;13.32;;;5.75;;
40244;SDS011;25963;42.694;23.600;2024-01-25T09:38:17;10.35;;;5.20;;
40244;SDS011;25963;42.694;23.600;2024-01-25T09:40:42;11.77;;;5.25;;
40244;SDS011;25963;42.694;23.600;2024-01-25T09:43:08;12.20;;;5.25;;
40244;SDS011;25963;42.694;23.600;2024-01-25T09:45:34;14.15;;;5.03;;
40244;SDS011;25963;42.694;23.600;2024-01-25T09:48:00;14.45;;;6.55;;
40244;SDS011;25963;42.694;23.600;2024-01-25T09:50:29;11.73;;;5.22;;
40244;SDS011;25963;42.694;23.600;2024-01-25T09:53:01;38.83;;;16.25;;
40244;SDS011;25963;42.694;23.600;2024-01-25T09:55:29;14.93;;;6.93;;
40244;SDS011;25963;42.694;23.600;2024-01-25T09:57:56;11.98;;;5.55;;
40244;SDS011;25963;42.694;23.600;2024-01-25T10:00:22;18.70;;;6.95;;
40244;SDS011;25963;42.694;23.600;2024-01-25T10:02:48;12.82;;;4.93;;
40244;SDS011;25963;42.694;23.600;2024-01-25T10:05:17;11.68;;;5.93;;
40244;SDS011;25963;42.694;23.600;2024-01-25T10:07:44;11.80;;;5.18;;
40244;SDS011;25963;42.694;23.600;2024-01-25T10:10:11;13.38;;;4.75;;
40244;SDS011;25963;42.694;23.600;2024-01-25T10:12:38;8.13;;;4.13;;
40244;SDS011;25963;42.694;23.600;2024-01-25T10:15:04;9.45;;;4.40;;
40244;SDS011;25963;42.694;23.600;2024-01-25T10:17:30;10.45;;;4.43;;
40244;SDS011;25963;42.694;23.600;2024-01-25T10:19:56;11.20;;;3.72;;
40244;SDS011;25963;42.694;23.600;2024-01-25T10:22:21;10.48;;;4.53;;
40244;SDS011;25963;42.694;23.600;2024-01-25T10:24:47;12.68;;;5.05;;
40244;SDS011;25963;42.694;23.600;2024-01-25T10:27:15;17.00;;;5.03;;
40244;SDS011;25963;42.694;23.600;2024-01-25T10:29:41;12.27;;;5.15;;
40244;SDS011;25963;42.694;23.600;2024-01-25T10:32:07;15.77;;;5.78;;
40244;SDS011;25963;42.694;23.600;2024-01-25T10:34:35;9.07;;;5.40;;
40244;SDS011;25963;42.694;23.600;2024-01-25T10:37:02;14.90;;;4.35;;
40244;SDS011;25963;42.694;23.600;2024-01-25T10:39:30;14.18;;;6.03;;
40244;SDS011;25963;42.694;23.600;2024-01-25T10:41:56;18.48;;;8.25;;
40244;SDS011;25963;42.694;23.600;2024-01-25T10:44:24;11.45;;;5.55;;
40244;SDS011;25963;42.694;23.600;2024-01-25T10:46:49;15.95;;;6.53;;
40244;SDS011;25963;42.694;23.600;2024-01-25T10:49:16;10.88;;;5.63;;
40244;SDS011;25963;42.694;23.600;2024-01-25T10:51:43;11.13;;;4.65;;
40244;SDS011;25963;42.694;23.600;2024-01-25T10:54:09;11.13;;;5.68;;
40244;SDS011;25963;42.694;23.600;2024-01-25T10:56:36;14.80;;;5.03;;
40244;SDS011;25963;42.694;23.600;2024-01-25T10:59:02;14.77;;;5.22;;
40244;SDS011;25963;42.694;23.600;2024-01-25T11:01:28;11.68;;;4.63;;
40244;SDS011;25963;42.694;23.600;2024-01-25T11:03:54;13.07;;;5.82;;
40244;SDS011;25963;42.694;23.600;2024-01-25T11:06:20;25.55;;;12.65;;
40244;SDS011;25963;42.694;23.600;2024-01-25T11:08:47;24.08;;;9.50;;
40244;SDS011;25963;42.694;23.600;2024-01-25T11:11:13;20.20;;;7.93;;
40244;SDS011;25963;42.694;23.600;2024-01-25T11:13:41;15.52;;;5.95;;
40244;SDS011;25963;42.694;23.600;2024-01-25T11:16:14;13.60;;;5.22;;
40244;SDS011;25963;42.694;23.600;2024-01-25T11:18:50;13.90;;;4.95;;
40244;SDS011;25963;42.694;23.600;2024-01-25T11:21:29;20.80;;;6.13;;
40244;SDS011;25963;42.694;23.600;2024-01-25T11:24:04;28.00;;;12.23;;
40244;SDS011;25963;42.694;23.600;2024-01-25T11:26:33;19.58;;;7.43;;
40244;SDS011;25963;42.694;23.600;2024-01-25T11:28:59;10.70;;;5.38;;
40244;SDS011;25963;42.694;23.600;2024-01-25T11:31:26;8.45;;;3.80;;
40244;SDS011;25963;42.694;23.600;2024-01-25T11:33:53;9.77;;;4.40;;
40244;SDS011;25963;42.694;23.600;2024-01-25T11:36:22;11.93;;;3.58;;
40244;SDS011;25963;42.694;23.600;2024-01-25T11:38:48;11.77;;;4.50;;
40244;SDS011;25963;42.694;23.600;2024-01-25T11:41:14;15.75;;;5.40;;
40244;SDS011;25963;42.694;23.600;2024-01-25T11:43:40;11.05;;;4.38;;
40244;SDS011;25963;42.694;23.600;2024-01-25T11:46:05;14.18;;;3.80;;
40244;SDS011;25963;42.694;23.600;2024-01-25T11:48:31;11.00;;;4.00;;
40244;SDS011;25963;42.694;23.600;2024-01-25T11:50:58;13.60;;;5.22;;
40244;SDS011;25963;42.694;23.600;2024-01-25T11:53:24;14.90;;;4.95;;
40244;SDS011;25963;42.694;23.600;2024-01-25T11:55:50;12.50;;;4.07;;
40244;SDS011;25963;42.694;23.600;2024-01-25T11:58:16;13.05;;;4.55;;
40244;SDS011;25963;42.694;23.600;2024-01-25T12:00:41;12.70;;;5.75;;
40244;SDS011;25963;42.694;23.600;2024-01-25T12:03:07;13.55;;;4.55;;
40244;SDS011;25963;42.694;23.600;2024-01-25T12:05:34;19.67;;;7.93;;
40244;SDS011;25963;42.694;23.600;2024-01-25T12:07:59;16.38;;;4.55;;
40244;SDS011;25963;42.694;23.600;2024-01-25T12:10:25;11.50;;;5.30;;
40244;SDS011;25963;42.694;23.600;2024-01-25T12:12:51;10.48;;;3.42;;
40244;SDS011;25963;42.694;23.600;2024-01-25T12:15:16;9.43;;;3.45;;
40244;SDS011;25963;42.694;23.600;2024-01-25T12:17:42;9.05;;;3.80;;
40244;SDS011;25963;42.694;23.600;2024-01-25T12:20:07;15.73;;;6.53;;
40244;SDS011;25963;42.694;23.600;2024-01-25T12:22:36;8.98;;;3.85;;
40244;SDS011;25963;42.694;23.600;2024-01-25T12:25:02;16.13;;;5.25;;
40244;SDS011;25963;42.694;23.600;2024-01-25T12:27:31;9.43;;;3.80;;
40244;SDS011;25963;42.694;23.600;2024-01-25T12:29:57;10.32;;;4.40;;
40244;SDS011;25963;42.694;23.600;2024-01-25T12:32:23;15.93;;;5.05;;
40244;SDS011;25963;42.694;23.600;2024-01-25T12:34:55;11.43;;;4.28;;
40244;SDS011;25963;42.694;23.600;2024-01-25T12:37:21;15.85;;;4.43;;
40244;SDS011;25963;42.694;23.600;2024-01-25T12:39:47;12.90;;;5.70;;
40244;SDS011;25963;42.694;23.600;2024-01-25T12:42:12;15.48;;;4.30;;
40244;SDS011;25963;42.694;23.600;2024-01-25T12:44:38;11.60;;;3.75;;
40244;SDS011;25963;42.694;23.600;2024-01-25T12:47:04;9.30;;;4.50;;
40244;SDS011;25963;42.694;23.600;2024-01-25T12:49:31;8.15;;;3.88;;
40244;SDS011;25963;42.694;23.600;2024-01-25T12:51:57;9.93;;;4.20;;
40244;SDS011;25963;42.694;23.600;2024-01-25T12:54:22;8.85;;;4.22;;
40244;SDS011;25963;42.694;23.600;2024-01-25T12:56:48;14.20;;;4.20;;
40244;SDS011;25963;42.694;23.600;2024-01-25T12:59:13;12.95;;;4.63;;
40244;SDS011;25963;42.694;23.600;2024-01-25T13:01:39;76.10;;;38.92;;
40244;SDS011;25963;42.694;23.600;2024-01-25T13:04:04;25.35;;;13.93;;
40244;SDS011;25963;42.694;23.600;2024-01-25T13:06:30;21.42;;;11.02;;
40244;SDS011;25963;42.694;23.600;2024-01-25T13:08:55;14.27;;;8.05;;
40244;SDS011;25963;42.694;23.600;2024-01-25T13:11:21;11.48;;;5.50;;
40244;SDS011;25963;42.694;23.600;2024-01-25T13:13:46;10.48;;;5.28;;
40244;SDS011;25963;42.694;23.600;2024-01-25T13:16:12;12.82;;;6.43;;
40244;SDS011;25963;42.694;23.600;2024-01-25T13:18:37;12.85;;;5.47;;
40244;SDS011;25963;42.694;23.600;2024-01-25T13:21:03;14.07;;;4.60;;
40244;SDS011;25963;42.694;23.600;2024-01-25T13:23:28;12.55;;;3.63;;
40244;SDS011;25963;42.694;23.600;2024-01-25T13:25:54;12.13;;;3.70;;
40244;SDS011;25963;42.694;23.600;2024-01-25T13:28:19;12.38;;;3.63;;
40244;SDS011;25963;42.694;23.600;2024-01-25T13:30:45;9.75;;;3.70;;
40244;SDS011;25963;42.694;23.600;2024-01-25T13:33:10;10.50;;;3.80;;
40244;SDS011;25963;42.694;23.600;2024-01-25T13:35:35;10.00;;;3.95;;
40244;SDS011;25963;42.694;23.600;2024-01-25T13:38:01;13.35;;;3.90;;
40244;SDS011;25963;42.694;23.600;2024-01-25T13:40:27;9.60;;;3.45;;
40244;SDS011;25963;42.694;23.600;2024-01-25T13:42:52;10.88;;;4.28;;
40244;SDS011;25963;42.694;23.600;2024-01-25T13:45:19;15.65;;;3.47;;
40244;SDS011;25963;42.694;23.600;2024-01-25T13:47:45;7.75;;;2.90;;
40244;SDS011;25963;42.694;23.600;2024-01-25T13:50:11;13.20;;;3.50;;
40244;SDS011;25963;42.694;23.600;2024-01-25T13:52:36;13.00;;;4.30;;
40244;SDS011;25963;42.694;23.600;2024-01-25T13:55:01;11.85;;;3.47;;
40244;SDS011;25963;42.694;23.600;2024-01-25T13:57:27;8.82;;;3.28;;
40244;SDS011;25963;42.694;23.600;2024-01-25T13:59:53;13.43;;;4.60;;
40244;SDS011;25963;42.694;23.600;2024-01-25T14:02:18;13.57;;;5.05;;
40244;SDS011;25963;42.694;23.600;2024-01-25T14:04:44;9.85;;;3.50;;
40244;SDS011;25963;42.694;23.600;2024-01-25T14:07:09;8.93;;;3.10;;
40244;SDS011;25963;42.694;23.600;2024-01-25T14:09:34;13.43;;;4.63;;